sensor_id;sensor_type;location;lat;lon;timestamp;P1;durP1;ratioP1;P2;durP2;ratioP2
25559;SDS011;13450;49.374;8.584;2022-12-07T00:00:50;11.07;;;4.05;;
25559;SDS011;13450;49.374;8.584;2022-12-07T00:03:18;11.98;;;4.40;;
25559;SDS011;13450;49.374;8.584;2022-12-07T00:05:44;9.00;;;4.07;;
25559;SDS011;13450;49.374;8.584;2022-12-07T00:08:10;10.15;;;4.40;;
25559;SDS011;13450;49.374;8.584;2022-12-07T00:10:35;8.02;;;3.55;;
25559;SDS011;13450;49.374;8.584;2022-12-07T00:13:01;7.90;;;3.60;;
25559;SDS011;13450;49.374;8.584;2022-12-07T00:15:26;8.88;;;3.67;;
25559;SDS011;13450;49.374;8.584;2022-12-07T00:17:53;7.03;;;2.67;;
25559;SDS011;13450;49.374;8.584;2022-12-07T00:20:18;7.32;;;2.95;;
25559;SDS011;13450;49.374;8.584;2022-12-07T00:22:46;8.82;;;2.80;;
25559;SDS011;13450;49.374;8.584;2022-12-07T00:25:11;7.75;;;2.90;;
25559;SDS011;13450;49.374;8.584;2022-12-07T00:27:36;7.95;;;2.67;;
25559;SDS011;13450;49.374;8.584;2022-12-07T00:30:02;8.13;;;2.80;;
25559;SDS011;13450;49.374;8.584;2022-12-07T00:32:30;8.30;;;2.88;;
25559;SDS011;13450;49.374;8.584;2022-12-07T00:34:55;5.80;;;2.53;;
25559;SDS011;13450;49.374;8.584;2022-12-07T00:37:20;8.68;;;3.60;;
25559;SDS011;13450;49.374;8.584;2022-12-07T00:39:46;8.95;;;3.10;;
25559;SDS011;13450;49.374;8.584;2022-12-07T00:42:11;8.88;;;2.83;;
25559;SDS011;13450;49.374;8.584;2022-12-07T00:44:36;7.72;;;2.88;;
25559;SDS011;13450;49.374;8.584;2022-12-07T00:47:01;8.18;;;2.90;;
25559;SDS011;13450;49.374;8.584;2022-12-07T00:49:29;7.50;;;2.88;;
25559;SDS011;13450;49.374;8.584;2022-12-07T00:51:55;9.57;;;3.40;;
25559;SDS011;13450;49.374;8.584;2022-12-07T00:54:20;6.82;;;2.80;;
25559;SDS011;13450;49.374;8.584;2022-12-07T00:56:45;10.13;;;4.53;;
25559;SDS011;13450;49.374;8.584;2022-12-07T00:59:12;8.52;;;3.03;;
25559;SDS011;13450;49.374;8.584;2022-12-07T01:01:39;9.82;;;3.60;;
25559;SDS011;13450;49.374;8.584;2022-12-07T01:04:05;17.58;;;7.72;;
25559;SDS011;13450;49.374;8.584;2022-12-07T01:06:30;11.07;;;4.50;;
25559;SDS011;13450;49.374;8.584;2022-12-07T01:08:56;8.60;;;2.85;;
25559;SDS011;13450;49.374;8.584;2022-12-07T01:11:24;6.18;;;2.58;;
25559;SDS011;13450;49.374;8.584;2022-12-07T01:13:52;7.07;;;2.60;;
25559;SDS011;13450;49.374;8.584;2022-12-07T01:16:19;5.65;;;2.08;;
25559;SDS011;13450;49.374;8.584;2022-12-07T01:18:46;7.18;;;2.95;;
25559;SDS011;13450;49.374;8.584;2022-12-07T01:21:14;8.57;;;3.00;;
25559;SDS011;13450;49.374;8.584;2022-12-07T01:23:42;6.88;;;2.50;;
25559;SDS011;13450;49.374;8.584;2022-12-07T01:26:11;7.22;;;2.92;;
25559;SDS011;13450;49.374;8.584;2022-12-07T01:31:13;6.15;;;2.55;;
25559;SDS011;13450;49.374;8.584;2022-12-07T01:33:41;8.13;;;2.78;;
25559;SDS011;13450;49.374;8.584;2022-12-07T01:36:11;10.20;;;3.45;;
25559;SDS011;13450;49.374;8.584;2022-12-07T01:38:37;15.27;;;4.28;;
25559;SDS011;13450;49.374;8.584;2022-12-07T01:41:03;12.80;;;4.45;;
25559;SDS011;13450;49.374;8.584;2022-12-07T01:43:31;9.93;;;3.55;;
25559;SDS011;13450;49.374;8.584;2022-12-07T01:48:25;7.75;;;2.83;;
25559;SDS011;13450;49.374;8.584;2022-12-07T01:50:53;7.55;;;3.28;;
25559;SDS011;13450;49.374;8.584;2022-12-07T01:53:23;18.80;;;5.97;;
25559;SDS011;13450;49.374;8.584;2022-12-07T01:55:51;16.42;;;6.00;;
25559;SDS011;13450;49.374;8.584;2022-12-07T01:58:17;8.02;;;2.70;;
25559;SDS011;13450;49.374;8.584;2022-12-07T02:00:43;7.60;;;3.25;;
25559;SDS011;13450;49.374;8.584;2022-12-07T02:05:45;7.47;;;2.67;;
25559;SDS011;13450;49.374;8.584;2022-12-07T02:08:12;5.85;;;2.20;;
25559;SDS011;13450;49.374;8.584;2022-12-07T02:10:39;4.75;;;1.80;;
25559;SDS011;13450;49.374;8.584;2022-12-07T02:13:09;5.38;;;2.08;;
25559;SDS011;13450;49.374;8.584;2022-12-07T02:18:12;7.57;;;3.15;;
25559;SDS011;13450;49.374;8.584;2022-12-07T02:40:41;7.43;;;2.63;;
25559;SDS011;13450;49.374;8.584;2022-12-07T02:43:14;7.95;;;3.65;;
25559;SDS011;13450;49.374;8.584;2022-12-07T02:45:47;9.23;;;3.80;;
25559;SDS011;13450;49.374;8.584;2022-12-07T02:48:13;7.75;;;3.08;;
25559;SDS011;13450;49.374;8.584;2022-12-07T02:50:48;8.52;;;3.13;;
25559;SDS011;13450;49.374;8.584;2022-12-07T02:59:02;7.28;;;3.00;;
25559;SDS011;13450;49.374;8.584;2022-12-07T03:05:00;7.22;;;2.50;;
25559;SDS011;13450;49.374;8.584;2022-12-07T03:07:39;8.13;;;3.10;;
25559;SDS011;13450;49.374;8.584;2022-12-07T03:13:04;7.13;;;2.35;;
25559;SDS011;13450;49.374;8.584;2022-12-07T03:18:11;8.75;;;3.30;;
25559;SDS011;13450;49.374;8.584;2022-12-07T03:20:40;6.47;;;2.72;;
25559;SDS011;13450;49.374;8.584;2022-12-07T03:23:17;9.85;;;3.60;;
25559;SDS011;13450;49.374;8.584;2022-12-07T03:25:45;8.07;;;3.17;;
25559;SDS011;13450;49.374;8.584;2022-12-07T03:28:16;7.97;;;3.13;;
25559;SDS011;13450;49.374;8.584;2022-12-07T03:33:22;6.85;;;2.95;;
25559;SDS011;13450;49.374;8.584;2022-12-07T03:35:56;9.68;;;3.10;;
25559;SDS011;13450;49.374;8.584;2022-12-07T03:38:35;7.80;;;3.30;;
25559;SDS011;13450;49.374;8.584;2022-12-07T03:43:54;7.75;;;2.97;;
25559;SDS011;13450;49.374;8.584;2022-12-07T03:54:24;6.13;;;2.60;;
25559;SDS011;13450;49.374;8.584;2022-12-07T03:56:56;9.77;;;3.05;;
25559;SDS011;13450;49.374;8.584;2022-12-07T03:59:23;7.72;;;3.20;;
25559;SDS011;13450;49.374;8.584;2022-12-07T04:01:54;8.40;;;3.20;;
25559;SDS011;13450;49.374;8.584;2022-12-07T04:04:22;7.40;;;2.80;;
25559;SDS011;13450;49.374;8.584;2022-12-07T04:06:49;6.82;;;3.28;;
25559;SDS011;13450;49.374;8.584;2022-12-07T04:09:15;8.73;;;3.22;;
25559;SDS011;13450;49.374;8.584;2022-12-07T04:11:41;5.53;;;2.35;;
25559;SDS011;13450;49.374;8.584;2022-12-07T04:14:07;8.70;;;3.25;;
25559;SDS011;13450;49.374;8.584;2022-12-07T04:16:49;7.88;;;3.35;;
25559;SDS011;13450;49.374;8.584;2022-12-07T04:19:31;7.82;;;3.35;;
25559;SDS011;13450;49.374;8.584;2022-12-07T04:21:58;8.60;;;3.30;;
25559;SDS011;13450;49.374;8.584;2022-12-07T04:24:25;7.45;;;3.05;;
25559;SDS011;13450;49.374;8.584;2022-12-07T04:26:51;9.73;;;3.45;;
25559;SDS011;13450;49.374;8.584;2022-12-07T04:29:17;9.32;;;3.25;;
25559;SDS011;13450;49.374;8.584;2022-12-07T04:31:43;7.65;;;3.55;;
25559;SDS011;13450;49.374;8.584;2022-12-07T04:34:09;6.95;;;2.92;;
25559;SDS011;13450;49.374;8.584;2022-12-07T04:36:35;9.45;;;3.35;;
25559;SDS011;13450;49.374;8.584;2022-12-07T04:39:01;7.75;;;3.55;;
25559;SDS011;13450;49.374;8.584;2022-12-07T04:41:32;9.93;;;3.33;;
25559;SDS011;13450;49.374;8.584;2022-12-07T04:43:59;9.35;;;3.70;;
25559;SDS011;13450;49.374;8.584;2022-12-07T04:46:28;8.52;;;3.33;;
25559;SDS011;13450;49.374;8.584;2022-12-07T04:48:55;9.45;;;3.42;;
25559;SDS011;13450;49.374;8.584;2022-12-07T04:51:22;10.38;;;4.18;;
25559;SDS011;13450;49.374;8.584;2022-12-07T04:53:49;7.55;;;3.00;;
25559;SDS011;13450;49.374;8.584;2022-12-07T04:56:17;7.55;;;2.90;;
25559;SDS011;13450;49.374;8.584;2022-12-07T04:58:43;5.82;;;2.35;;
25559;SDS011;13450;49.374;8.584;2022-12-07T05:01:10;5.45;;;2.03;;
25559;SDS011;13450;49.374;8.584;2022-12-07T05:03:36;13.40;;;4.95;;
25559;SDS011;13450;49.374;8.584;2022-12-07T05:06:01;10.73;;;4.28;;
25559;SDS011;13450;49.374;8.584;2022-12-07T05:08:27;9.93;;;3.63;;
25559;SDS011;13450;49.374;8.584;2022-12-07T05:10:53;7.95;;;3.25;;
25559;SDS011;13450;49.374;8.584;2022-12-07T05:13:18;6.70;;;2.70;;
25559;SDS011;13450;49.374;8.584;2022-12-07T05:15:43;7.57;;;3.30;;
25559;SDS011;13450;49.374;8.584;2022-12-07T05:18:09;7.18;;;2.72;;
25559;SDS011;13450;49.374;8.584;2022-12-07T05:20:37;9.45;;;3.42;;
25559;SDS011;13450;49.374;8.584;2022-12-07T05:23:04;9.75;;;4.00;;
25559;SDS011;13450;49.374;8.584;2022-12-07T05:25:29;8.55;;;3.78;;
25559;SDS011;13450;49.374;8.584;2022-12-07T05:27:55;9.48;;;3.90;;
25559;SDS011;13450;49.374;8.584;2022-12-07T05:30:21;9.18;;;3.50;;
25559;SDS011;13450;49.374;8.584;2022-12-07T05:32:47;10.25;;;4.10;;
25559;SDS011;13450;49.374;8.584;2022-12-07T05:35:13;9.93;;;3.70;;
25559;SDS011;13450;49.374;8.584;2022-12-07T05:37:40;7.15;;;3.25;;
25559;SDS011;13450;49.374;8.584;2022-12-07T05:40:06;11.52;;;4.38;;
25559;SDS011;13450;49.374;8.584;2022-12-07T05:42:32;8.75;;;3.97;;
25559;SDS011;13450;49.374;8.584;2022-12-07T05:44:59;9.27;;;3.90;;
25559;SDS011;13450;49.374;8.584;2022-12-07T05:47:24;11.00;;;3.72;;
25559;SDS011;13450;49.374;8.584;2022-12-07T05:49:52;8.35;;;3.75;;
25559;SDS011;13450;49.374;8.584;2022-12-07T05:52:17;10.50;;;4.43;;
25559;SDS011;13450;49.374;8.584;2022-12-07T05:54:43;10.07;;;3.90;;
25559;SDS011;13450;49.374;8.584;2022-12-07T05:57:08;13.25;;;4.50;;
25559;SDS011;13450;49.374;8.584;2022-12-07T05:59:33;11.30;;;4.28;;
25559;SDS011;13450;49.374;8.584;2022-12-07T06:02:09;9.82;;;4.13;;
25559;SDS011;13450;49.374;8.584;2022-12-07T06:04:37;11.43;;;4.50;;
25559;SDS011;13450;49.374;8.584;2022-12-07T06:07:04;11.80;;;4.35;;
25559;SDS011;13450;49.374;8.584;2022-12-07T06:09:30;9.20;;;3.97;;
25559;SDS011;13450;49.374;8.584;2022-12-07T06:11:56;8.65;;;4.28;;
25559;SDS011;13450;49.374;8.584;2022-12-07T06:14:41;6.93;;;3.45;;
25559;SDS011;13450;49.374;8.584;2022-12-07T06:17:06;10.27;;;4.13;;
25559;SDS011;13450;49.374;8.584;2022-12-07T06:19:31;8.77;;;3.55;;
25559;SDS011;13450;49.374;8.584;2022-12-07T06:21:57;9.88;;;4.85;;
25559;SDS011;13450;49.374;8.584;2022-12-07T06:24:23;12.48;;;5.00;;
25559;SDS011;13450;49.374;8.584;2022-12-07T06:26:48;13.73;;;4.40;;
25559;SDS011;13450;49.374;8.584;2022-12-07T06:29:14;10.35;;;4.38;;
25559;SDS011;13450;49.374;8.584;2022-12-07T06:31:42;9.32;;;3.78;;
25559;SDS011;13450;49.374;8.584;2022-12-07T06:34:13;10.68;;;3.75;;
25559;SDS011;13450;49.374;8.584;2022-12-07T06:36:41;9.75;;;4.05;;
25559;SDS011;13450;49.374;8.584;2022-12-07T06:39:07;10.27;;;3.97;;
25559;SDS011;13450;49.374;8.584;2022-12-07T06:41:34;11.07;;;4.43;;
25559;SDS011;13450;49.374;8.584;2022-12-07T06:44:01;9.23;;;3.78;;
25559;SDS011;13450;49.374;8.584;2022-12-07T06:46:26;11.25;;;4.55;;
25559;SDS011;13450;49.374;8.584;2022-12-07T06:48:52;10.40;;;3.92;;
25559;SDS011;13450;49.374;8.584;2022-12-07T06:51:19;10.65;;;4.78;;
25559;SDS011;13450;49.374;8.584;2022-12-07T06:53:45;12.20;;;4.40;;
25559;SDS011;13450;49.374;8.584;2022-12-07T06:56:13;13.50;;;5.00;;
25559;SDS011;13450;49.374;8.584;2022-12-07T06:58:38;13.63;;;5.05;;
25559;SDS011;13450;49.374;8.584;2022-12-07T07:01:08;13.10;;;5.40;;
25559;SDS011;13450;49.374;8.584;2022-12-07T07:03:43;10.27;;;4.53;;
25559;SDS011;13450;49.374;8.584;2022-12-07T07:06:12;11.40;;;4.10;;
25559;SDS011;13450;49.374;8.584;2022-12-07T07:08:38;11.80;;;4.25;;
25559;SDS011;13450;49.374;8.584;2022-12-07T07:11:04;9.35;;;3.85;;
25559;SDS011;13450;49.374;8.584;2022-12-07T07:13:30;9.63;;;4.00;;
25559;SDS011;13450;49.374;8.584;2022-12-07T07:15:56;9.75;;;3.75;;
25559;SDS011;13450;49.374;8.584;2022-12-07T07:18:21;11.52;;;4.63;;
25559;SDS011;13450;49.374;8.584;2022-12-07T07:20:47;15.15;;;5.15;;
25559;SDS011;13450;49.374;8.584;2022-12-07T07:23:12;14.30;;;5.22;;
25559;SDS011;13450;49.374;8.584;2022-12-07T07:25:39;14.50;;;5.32;;
25559;SDS011;13450;49.374;8.584;2022-12-07T07:28:09;12.73;;;5.72;;
25559;SDS011;13450;49.374;8.584;2022-12-07T07:30:34;21.17;;;8.15;;
25559;SDS011;13450;49.374;8.584;2022-12-07T07:33:00;23.65;;;10.07;;
25559;SDS011;13450;49.374;8.584;2022-12-07T07:35:27;19.23;;;7.00;;
25559;SDS011;13450;49.374;8.584;2022-12-07T07:37:54;15.25;;;6.03;;
25559;SDS011;13450;49.374;8.584;2022-12-07T07:40:19;12.10;;;4.43;;
25559;SDS011;13450;49.374;8.584;2022-12-07T07:42:52;9.80;;;4.15;;
25559;SDS011;13450;49.374;8.584;2022-12-07T07:45:19;15.90;;;5.18;;
25559;SDS011;13450;49.374;8.584;2022-12-07T07:47:46;15.48;;;5.65;;
25559;SDS011;13450;49.374;8.584;2022-12-07T07:50:12;13.48;;;4.90;;
25559;SDS011;13450;49.374;8.584;2022-12-07T07:52:37;14.57;;;5.28;;
25559;SDS011;13450;49.374;8.584;2022-12-07T07:55:03;17.83;;;6.90;;
25559;SDS011;13450;49.374;8.584;2022-12-07T07:57:29;16.30;;;6.00;;
25559;SDS011;13450;49.374;8.584;2022-12-07T07:59:54;10.73;;;4.60;;
25559;SDS011;13450;49.374;8.584;2022-12-07T08:02:20;10.95;;;4.28;;
25559;SDS011;13450;49.374;8.584;2022-12-07T08:04:46;11.05;;;4.38;;
25559;SDS011;13450;49.374;8.584;2022-12-07T08:07:13;11.90;;;4.85;;
25559;SDS011;13450;49.374;8.584;2022-12-07T08:09:41;12.07;;;4.07;;
25559;SDS011;13450;49.374;8.584;2022-12-07T08:12:09;10.93;;;4.03;;
25559;SDS011;13450;49.374;8.584;2022-12-07T08:14:34;10.52;;;4.50;;
25559;SDS011;13450;49.374;8.584;2022-12-07T08:16:59;11.38;;;4.13;;
25559;SDS011;13450;49.374;8.584;2022-12-07T08:19:25;11.88;;;4.22;;
25559;SDS011;13450;49.374;8.584;2022-12-07T08:21:50;12.45;;;4.13;;
25559;SDS011;13450;49.374;8.584;2022-12-07T08:24:15;9.43;;;4.35;;
25559;SDS011;13450;49.374;8.584;2022-12-07T08:26:41;11.23;;;4.43;;
25559;SDS011;13450;49.374;8.584;2022-12-07T08:29:06;11.52;;;4.82;;
25559;SDS011;13450;49.374;8.584;2022-12-07T08:31:32;11.48;;;4.07;;
25559;SDS011;13450;49.374;8.584;2022-12-07T08:33:57;12.15;;;3.88;;
25559;SDS011;13450;49.374;8.584;2022-12-07T08:36:25;12.68;;;4.82;;
25559;SDS011;13450;49.374;8.584;2022-12-07T08:38:51;11.13;;;4.13;;
25559;SDS011;13450;49.374;8.584;2022-12-07T08:41:16;13.25;;;4.40;;
25559;SDS011;13450;49.374;8.584;2022-12-07T08:43:44;8.77;;;4.10;;
25559;SDS011;13450;49.374;8.584;2022-12-07T08:48:45;10.70;;;4.22;;
25559;SDS011;13450;49.374;8.584;2022-12-07T08:51:14;9.45;;;3.72;;
25559;SDS011;13450;49.374;8.584;2022-12-07T08:53:40;11.25;;;3.85;;
25559;SDS011;13450;49.374;8.584;2022-12-07T08:56:07;9.77;;;4.10;;
25559;SDS011;13450;49.374;8.584;2022-12-07T08:58:34;11.90;;;4.55;;
25559;SDS011;13450;49.374;8.584;2022-12-07T09:01:00;9.75;;;4.18;;
25559;SDS011;13450;49.374;8.584;2022-12-07T09:03:26;12.20;;;5.25;;
25559;SDS011;13450;49.374;8.584;2022-12-07T09:05:52;14.18;;;4.88;;
25559;SDS011;13450;49.374;8.584;2022-12-07T09:08:18;10.65;;;4.80;;
25559;SDS011;13450;49.374;8.584;2022-12-07T09:10:44;13.73;;;5.50;;
25559;SDS011;13450;49.374;8.584;2022-12-07T09:13:10;12.18;;;4.50;;
25559;SDS011;13450;49.374;8.584;2022-12-07T09:15:36;10.75;;;4.80;;
25559;SDS011;13450;49.374;8.584;2022-12-07T09:18:02;12.15;;;5.35;;
25559;SDS011;13450;49.374;8.584;2022-12-07T09:20:27;11.27;;;4.30;;
25559;SDS011;13450;49.374;8.584;2022-12-07T09:22:52;14.63;;;4.88;;
25559;SDS011;13450;49.374;8.584;2022-12-07T09:25:18;10.25;;;4.40;;
25559;SDS011;13450;49.374;8.584;2022-12-07T09:27:46;10.77;;;4.13;;
25559;SDS011;13450;49.374;8.584;2022-12-07T09:30:11;15.15;;;5.05;;
25559;SDS011;13450;49.374;8.584;2022-12-07T09:32:36;11.82;;;4.80;;
25559;SDS011;13450;49.374;8.584;2022-12-07T09:35:04;12.07;;;4.28;;
25559;SDS011;13450;49.374;8.584;2022-12-07T09:37:30;10.13;;;3.97;;
25559;SDS011;13450;49.374;8.584;2022-12-07T09:42:38;10.63;;;4.00;;
25559;SDS011;13450;49.374;8.584;2022-12-07T09:45:17;14.07;;;4.43;;
25559;SDS011;13450;49.374;8.584;2022-12-07T09:47:50;9.95;;;3.92;;
25559;SDS011;13450;49.374;8.584;2022-12-07T09:50:16;10.05;;;3.83;;
25559;SDS011;13450;49.374;8.584;2022-12-07T09:52:47;12.55;;;4.47;;
25559;SDS011;13450;49.374;8.584;2022-12-07T09:55:16;9.00;;;3.83;;
25559;SDS011;13450;49.374;8.584;2022-12-07T09:57:47;11.77;;;3.90;;
25559;SDS011;13450;49.374;8.584;2022-12-07T10:00:17;12.87;;;4.50;;
25559;SDS011;13450;49.374;8.584;2022-12-07T10:02:44;9.95;;;3.67;;
25559;SDS011;13450;49.374;8.584;2022-12-07T10:05:29;8.98;;;3.65;;
25559;SDS011;13450;49.374;8.584;2022-12-07T10:07:57;8.70;;;3.80;;
25559;SDS011;13450;49.374;8.584;2022-12-07T10:10:31;11.60;;;4.72;;
25559;SDS011;13450;49.374;8.584;2022-12-07T10:13:11;11.93;;;4.47;;
25559;SDS011;13450;49.374;8.584;2022-12-07T10:18:20;10.48;;;4.20;;
25559;SDS011;13450;49.374;8.584;2022-12-07T10:20:50;10.32;;;4.05;;
25559;SDS011;13450;49.374;8.584;2022-12-07T10:23:34;9.88;;;4.47;;
25559;SDS011;13450;49.374;8.584;2022-12-07T10:26:17;9.23;;;3.55;;
25559;SDS011;13450;49.374;8.584;2022-12-07T10:28:46;12.25;;;4.32;;
25559;SDS011;13450;49.374;8.584;2022-12-07T10:31:15;10.18;;;4.03;;
25559;SDS011;13450;49.374;8.584;2022-12-07T10:33:56;18.90;;;4.30;;
25559;SDS011;13450;49.374;8.584;2022-12-07T10:36:34;14.13;;;4.38;;
25559;SDS011;13450;49.374;8.584;2022-12-07T10:41:43;11.52;;;4.53;;
25559;SDS011;13450;49.374;8.584;2022-12-07T10:44:21;10.25;;;3.97;;
25559;SDS011;13450;49.374;8.584;2022-12-07T10:46:53;13.63;;;4.53;;
25559;SDS011;13450;49.374;8.584;2022-12-07T10:55:16;10.68;;;4.13;;
25559;SDS011;13450;49.374;8.584;2022-12-07T10:57:53;11.15;;;4.28;;
25559;SDS011;13450;49.374;8.584;2022-12-07T11:00:25;15.77;;;6.15;;
25559;SDS011;13450;49.374;8.584;2022-12-07T11:11:23;12.68;;;4.80;;
25559;SDS011;13450;49.374;8.584;2022-12-07T11:14:06;10.20;;;4.40;;
25559;SDS011;13450;49.374;8.584;2022-12-07T11:22:11;18.60;;;6.15;;
25559;SDS011;13450;49.374;8.584;2022-12-07T11:24:48;12.90;;;4.63;;
25559;SDS011;13450;49.374;8.584;2022-12-07T11:29:59;11.77;;;5.30;;
25559;SDS011;13450;49.374;8.584;2022-12-07T11:35:25;11.25;;;4.75;;
25559;SDS011;13450;49.374;8.584;2022-12-07T11:38:14;16.02;;;5.70;;
25559;SDS011;13450;49.374;8.584;2022-12-07T11:40:45;13.35;;;5.00;;
25559;SDS011;13450;49.374;8.584;2022-12-07T11:48:33;19.70;;;6.50;;
25559;SDS011;13450;49.374;8.584;2022-12-07T11:51:03;12.05;;;4.28;;
25559;SDS011;13450;49.374;8.584;2022-12-07T11:53:36;11.05;;;4.47;;
25559;SDS011;13450;49.374;8.584;2022-12-07T11:56:12;12.48;;;5.03;;
25559;SDS011;13450;49.374;8.584;2022-12-07T12:06:35;9.30;;;3.45;;
25559;SDS011;13450;49.374;8.584;2022-12-07T12:15:13;5.88;;;2.58;;
25559;SDS011;13450;49.374;8.584;2022-12-07T12:17:56;5.13;;;2.00;;
25559;SDS011;13450;49.374;8.584;2022-12-07T12:25:52;8.15;;;3.70;;
25559;SDS011;13450;49.374;8.584;2022-12-07T12:31:12;7.95;;;2.75;;
25559;SDS011;13450;49.374;8.584;2022-12-07T12:33:56;5.95;;;2.03;;
25559;SDS011;13450;49.374;8.584;2022-12-07T12:36:27;4.38;;;2.35;;
25559;SDS011;13450;49.374;8.584;2022-12-07T12:39:17;4.55;;;1.85;;
25559;SDS011;13450;49.374;8.584;2022-12-07T12:51:45;6.55;;;2.30;;
25559;SDS011;13450;49.374;8.584;2022-12-07T12:54:19;10.90;;;2.17;;
25559;SDS011;13450;49.374;8.584;2022-12-07T12:57:25;5.22;;;2.22;;
25559;SDS011;13450;49.374;8.584;2022-12-07T13:13:03;6.03;;;2.10;;
25559;SDS011;13450;49.374;8.584;2022-12-07T13:39:51;4.32;;;1.95;;
25559;SDS011;13450;49.374;8.584;2022-12-07T13:42:25;5.38;;;1.88;;
25559;SDS011;13450;49.374;8.584;2022-12-07T13:44:52;5.43;;;1.80;;
25559;SDS011;13450;49.374;8.584;2022-12-07T13:47:36;6.93;;;2.25;;
25559;SDS011;13450;49.374;8.584;2022-12-07T13:50:23;5.88;;;2.60;;
25559;SDS011;13450;49.374;8.584;2022-12-07T13:52:54;6.30;;;2.70;;
25559;SDS011;13450;49.374;8.584;2022-12-07T13:55:20;7.32;;;2.85;;
25559;SDS011;13450;49.374;8.584;2022-12-07T13:57:47;7.15;;;2.80;;
25559;SDS011;13450;49.374;8.584;2022-12-07T14:00:16;8.45;;;2.90;;
25559;SDS011;13450;49.374;8.584;2022-12-07T14:03:01;5.95;;;2.95;;
25559;SDS011;13450;49.374;8.584;2022-12-07T14:06:02;7.18;;;2.95;;
25559;SDS011;13450;49.374;8.584;2022-12-07T14:08:29;8.15;;;3.05;;
25559;SDS011;13450;49.374;8.584;2022-12-07T14:10:55;10.77;;;3.75;;
25559;SDS011;13450;49.374;8.584;2022-12-07T14:15:49;8.15;;;3.13;;
25559;SDS011;13450;49.374;8.584;2022-12-07T14:18:29;8.20;;;3.00;;
25559;SDS011;13450;49.374;8.584;2022-12-07T14:26:51;8.70;;;3.10;;
25559;SDS011;13450;49.374;8.584;2022-12-07T14:31:53;8.35;;;3.60;;
25559;SDS011;13450;49.374;8.584;2022-12-07T14:34:20;7.30;;;3.15;;
25559;SDS011;13450;49.374;8.584;2022-12-07T14:36:48;7.28;;;2.92;;
25559;SDS011;13450;49.374;8.584;2022-12-07T14:39:16;6.45;;;2.80;;
25559;SDS011;13450;49.374;8.584;2022-12-07T14:41:41;6.88;;;2.78;;
25559;SDS011;13450;49.374;8.584;2022-12-07T14:44:15;6.82;;;2.60;;
25559;SDS011;13450;49.374;8.584;2022-12-07T14:46:41;6.93;;;2.58;;
25559;SDS011;13450;49.374;8.584;2022-12-07T14:49:06;8.02;;;2.83;;
25559;SDS011;13450;49.374;8.584;2022-12-07T14:51:32;6.78;;;2.65;;
25559;SDS011;13450;49.374;8.584;2022-12-07T14:53:59;5.55;;;2.25;;
25559;SDS011;13450;49.374;8.584;2022-12-07T14:56:25;6.15;;;2.35;;
25559;SDS011;13450;49.374;8.584;2022-12-07T14:58:50;6.43;;;2.63;;
25559;SDS011;13450;49.374;8.584;2022-12-07T15:01:16;7.43;;;2.63;;
25559;SDS011;13450;49.374;8.584;2022-12-07T15:03:41;7.53;;;2.97;;
25559;SDS011;13450;49.374;8.584;2022-12-07T15:06:10;7.10;;;2.47;;
25559;SDS011;13450;49.374;8.584;2022-12-07T15:08:41;7.25;;;2.60;;
25559;SDS011;13450;49.374;8.584;2022-12-07T15:11:09;7.63;;;2.80;;
25559;SDS011;13450;49.374;8.584;2022-12-07T15:13:37;8.55;;;3.40;;
25559;SDS011;13450;49.374;8.584;2022-12-07T15:16:21;8.18;;;2.70;;
25559;SDS011;13450;49.374;8.584;2022-12-07T15:18:46;6.55;;;2.80;;
25559;SDS011;13450;49.374;8.584;2022-12-07T15:21:15;5.82;;;2.40;;
25559;SDS011;13450;49.374;8.584;2022-12-07T15:23:41;8.25;;;2.65;;
25559;SDS011;13450;49.374;8.584;2022-12-07T15:26:07;7.95;;;3.10;;
25559;SDS011;13450;49.374;8.584;2022-12-07T15:28:35;6.47;;;3.03;;
25559;SDS011;13450;49.374;8.584;2022-12-07T15:31:00;7.10;;;2.45;;
25559;SDS011;13450;49.374;8.584;2022-12-07T15:33:25;7.07;;;2.65;;
25559;SDS011;13450;49.374;8.584;2022-12-07T15:35:51;7.32;;;2.95;;
25559;SDS011;13450;49.374;8.584;2022-12-07T15:38:16;6.18;;;2.50;;
25559;SDS011;13450;49.374;8.584;2022-12-07T15:40:41;7.45;;;3.03;;
25559;SDS011;13450;49.374;8.584;2022-12-07T15:43:10;7.07;;;3.30;;
25559;SDS011;13450;49.374;8.584;2022-12-07T15:45:56;6.22;;;2.75;;
25559;SDS011;13450;49.374;8.584;2022-12-07T15:48:22;10.43;;;3.88;;
25559;SDS011;13450;49.374;8.584;2022-12-07T15:50:47;7.40;;;3.35;;
25559;SDS011;13450;49.374;8.584;2022-12-07T15:53:12;8.57;;;3.13;;
25559;SDS011;13450;49.374;8.584;2022-12-07T15:55:38;8.75;;;3.55;;
25559;SDS011;13450;49.374;8.584;2022-12-07T15:58:04;11.15;;;3.75;;
25559;SDS011;13450;49.374;8.584;2022-12-07T16:00:30;7.53;;;2.90;;
25559;SDS011;13450;49.374;8.584;2022-12-07T16:02:55;10.45;;;4.47;;
25559;SDS011;13450;49.374;8.584;2022-12-07T16:05:20;9.13;;;3.70;;
25559;SDS011;13450;49.374;8.584;2022-12-07T16:07:46;9.32;;;3.35;;
25559;SDS011;13450;49.374;8.584;2022-12-07T16:10:12;7.88;;;3.55;;
25559;SDS011;13450;49.374;8.584;2022-12-07T16:12:37;8.20;;;3.58;;
25559;SDS011;13450;49.374;8.584;2022-12-07T16:15:03;8.88;;;4.00;;
25559;SDS011;13450;49.374;8.584;2022-12-07T16:17:29;6.75;;;3.20;;
25559;SDS011;13450;49.374;8.584;2022-12-07T16:19:57;7.15;;;2.95;;
25559;SDS011;13450;49.374;8.584;2022-12-07T16:22:22;7.72;;;3.40;;
25559;SDS011;13450;49.374;8.584;2022-12-07T16:24:48;9.73;;;3.80;;
25559;SDS011;13450;49.374;8.584;2022-12-07T16:27:13;7.20;;;3.10;;
25559;SDS011;13450;49.374;8.584;2022-12-07T16:29:44;7.88;;;3.08;;
25559;SDS011;13450;49.374;8.584;2022-12-07T16:32:09;7.82;;;3.75;;
25559;SDS011;13450;49.374;8.584;2022-12-07T16:34:34;10.45;;;4.18;;
25559;SDS011;13450;49.374;8.584;2022-12-07T16:37:00;10.55;;;4.90;;
25559;SDS011;13450;49.374;8.584;2022-12-07T16:39:25;8.20;;;3.10;;
25559;SDS011;13450;49.374;8.584;2022-12-07T16:41:50;8.30;;;3.40;;
25559;SDS011;13450;49.374;8.584;2022-12-07T16:44:17;11.23;;;4.13;;
25559;SDS011;13450;49.374;8.584;2022-12-07T16:46:43;12.25;;;4.22;;
25559;SDS011;13450;49.374;8.584;2022-12-07T16:49:17;23.92;;;7.63;;
25559;SDS011;13450;49.374;8.584;2022-12-07T16:51:46;15.25;;;5.35;;
25559;SDS011;13450;49.374;8.584;2022-12-07T16:54:14;8.43;;;3.40;;
25559;SDS011;13450;49.374;8.584;2022-12-07T16:56:40;8.48;;;3.47;;
25559;SDS011;13450;49.374;8.584;2022-12-07T16:59:05;9.60;;;3.88;;
25559;SDS011;13450;49.374;8.584;2022-12-07T17:01:30;12.30;;;4.13;;
25559;SDS011;13450;49.374;8.584;2022-12-07T17:03:57;8.98;;;3.80;;
25559;SDS011;13450;49.374;8.584;2022-12-07T17:06:26;17.73;;;5.70;;
25559;SDS011;13450;49.374;8.584;2022-12-07T17:08:53;9.82;;;4.55;;
25559;SDS011;13450;49.374;8.584;2022-12-07T17:11:20;9.15;;;3.95;;
25559;SDS011;13450;49.374;8.584;2022-12-07T17:13:47;10.43;;;4.18;;
25559;SDS011;13450;49.374;8.584;2022-12-07T17:16:31;18.60;;;6.47;;
25559;SDS011;13450;49.374;8.584;2022-12-07T17:18:57;10.20;;;4.13;;
25559;SDS011;13450;49.374;8.584;2022-12-07T17:21:24;15.65;;;5.18;;
25559;SDS011;13450;49.374;8.584;2022-12-07T17:23:50;10.45;;;4.68;;
25559;SDS011;13450;49.374;8.584;2022-12-07T17:26:17;13.55;;;4.72;;
25559;SDS011;13450;49.374;8.584;2022-12-07T17:28:45;12.00;;;4.78;;
25559;SDS011;13450;49.374;8.584;2022-12-07T17:31:11;12.38;;;5.07;;
25559;SDS011;13450;49.374;8.584;2022-12-07T17:33:40;13.70;;;5.25;;
25559;SDS011;13450;49.374;8.584;2022-12-07T17:36:12;11.82;;;4.93;;
25559;SDS011;13450;49.374;8.584;2022-12-07T17:38:41;14.65;;;5.47;;
25559;SDS011;13450;49.374;8.584;2022-12-07T17:43:37;36.38;;;13.32;;
25559;SDS011;13450;49.374;8.584;2022-12-07T17:46:06;21.52;;;6.72;;
25559;SDS011;13450;49.374;8.584;2022-12-07T17:48:33;13.27;;;5.60;;
25559;SDS011;13450;49.374;8.584;2022-12-07T17:51:01;20.02;;;8.52;;
25559;SDS011;13450;49.374;8.584;2022-12-07T17:53:49;19.20;;;7.75;;